Date,TemperatureHighF,TemperatureAvgF,TemperatureLowF,DewpointHighF,DewpointAvgF,DewpointLowF,HumidityHigh,HumidityAvg,HumidityLow,PressureMaxIn,PressureMinIn,WindSpeedMaxMPH,WindSpeedAvgMPH,GustSpeedMaxMPH,PrecipitationSumIn
2013-1-1,54,49,46,-100,-100,-100,0,0,100,30.29,30.21,13,-50,15,0.00
2013-1-2,58,52,46,-100,-100,-100,0,0,100,30.24,30.13,13,-88,16,0.00
2013-1-3,61,51,48,-100,-100,-100,0,0,100,30.27,30.15,12,-53,15,0.00
2013-1-4,61,52,47,-100,-100,-100,0,0,100,30.29,30.19,8,-110,9,0.00
2013-1-5,54,52,50,-100,-100,-100,0,0,100,30.24,30.03,23,9,30,0.00
2013-1-6,53,50,47,-100,-100,-100,0,0,100,30.20,30.04,23,6,27,0.00
2013-1-7,55,53,51,-100,-100,-100,0,0,100,30.27,30.17,27,20,32,0.00
2013-1-8,54,52,50,-100,-100,-100,0,0,100,30.25,30.14,21,12,26,0.00
2013-1-9,54,50,48,-100,-100,-100,0,0,100,30.16,30.03,32,7,39,0.00
2013-1-10,49,47,46,-100,-100,-100,0,0,100,30.23,30.10,34,22,42,0.00
2013-1-11,50,48,46,-100,-100,-100,0,0,100,30.28,30.14,29,18,36,0.00
2013-1-12,48,46,43,-100,-100,-100,0,0,100,30.26,30.16,10,-60,13,0.00
2013-1-13,50,45,41,-100,-100,-100,0,0,100,30.27,30.20,8,-95,10,0.00
2013-1-14,50,47,44,-100,-100,-100,0,0,100,30.41,30.29,11,-4,12,0.00
2013-1-15,53,48,45,-100,-100,-100,0,0,100,30.48,30.40,6,-269,10,0.00
2013-1-16,56,49,44,-100,-100,-100,0,0,100,30.44,30.27,12,-86,15,0.00
2013-1-17,63,54,48,-100,-100,-100,0,0,100,30.27,30.15,15,5,18,0.00
2013-1-18,69,58,53,-100,-100,-100,0,0,100,30.20,30.13,9,-201,11,0.00
2013-1-19,65,58,53,-100,-100,-100,0,0,100,30.22,30.15,9,-77,12,0.00
2013-1-20,68,58,51,-100,-100,-100,0,0,100,30.20,30.12,5,-102,6,0.00
2013-1-21,67,58,53,-100,-100,-100,0,0,100,30.16,30.07,8,-74,11,0.00
2013-1-22,65,58,54,-100,-100,-100,0,0,100,30.09,29.99,16,-23,21,0.00
2013-1-23,60,56,51,-100,-100,-100,0,0,100,30.09,29.94,17,-33,23,0.00
2013-1-24,57,54,52,-100,-100,-100,0,0,100,30.19,30.07,16,-122,17,0.00
2013-1-25,61,55,53,-100,-100,-100,0,0,100,30.20,30.06,20,-131,25,0.00
2013-1-26,53,51,49,-100,-100,-100,0,0,100,30.11,30.03,27,19,33,0.00
2013-1-27,51,49,48,-100,-100,-100,0,0,100,30.20,30.10,34,26,41,0.00
2013-1-28,52,50,48,-100,-100,-100,0,0,100,30.32,30.19,34,25,41,0.00
2013-1-29,51,50,49,-100,-100,-100,0,0,100,30.38,30.30,37,26,46,0.00
2013-1-30,57,51,48,-100,-100,-100,0,0,100,30.35,30.28,27,-82,32,0.00
2013-1-31,64,52,46,-100,-100,-100,0,0,100,30.29,30.19,11,-97,13,0.00
2013-2-1,64,55,48,-100,-100,-100,0,0,100,30.25,30.13,9,-248,15,0.00
2013-2-2,52,50,48,-100,-100,-100,0,0,100,30.32,30.24,18,1,22,0.00
2013-2-3,54,50,49,-100,-100,-100,0,0,100,30.27,30.17,22,13,27,0.00
2013-2-4,49,49,48,-100,-100,-100,0,0,100,30.19,30.10,18,11,22,0.00
2013-2-5,52,50,48,-100,-100,-100,0,0,100,30.18,30.09,22,14,28,0.00
2013-2-6,51,50,48,-100,-100,-100,0,0,100,30.22,30.16,22,13,27,0.00
2013-2-7,52,50,45,-100,-100,-100,0,0,100,30.18,30.01,26,0,30,0.00
2013-2-8,50,47,42,-100,-100,-100,0,0,100,30.04,29.96,28,13,36,0.00
2013-2-9,53,48,45,-100,-100,-100,0,0,100,30.11,30.02,18,-48,23,0.00
2013-2-10,53,48,44,-100,-100,-100,0,0,100,30.13,30.05,16,-198,19,0.00
2013-2-11,59,52,47,-100,-100,-100,0,0,100,30.25,30.09,16,-34,19,0.00
2013-2-12,51,49,47,-100,-100,-100,0,0,100,30.38,30.24,11,-1,15,0.00
2013-2-13,51,48,45,-100,-100,-100,0,0,100,30.37,30.24,13,-9,16,0.00
2013-2-14,62,51,45,-100,-100,-100,0,0,100,30.26,30.19,7,-164,9,0.00
2013-2-15,68,60,51,-100,-100,-100,0,0,100,30.27,30.20,13,-191,15,0.00
2013-2-16,63,55,49,-100,-100,-100,0,0,100,30.24,30.07,29,-15,34,0.00
2013-2-17,51,50,49,-100,-100,-100,0,0,100,30.08,30.00,29,22,35,0.00
2013-2-18,49,48,47,-100,-100,-100,0,0,100,30.06,29.98,24,18,30,0.00
2013-2-19,50,47,44,-100,-100,-100,0,0,100,29.99,29.79,28,17,37,0.00
2013-2-20,50,48,45,-100,-100,-100,0,0,100,30.09,29.86,35,26,43,0.00
2013-2-21,50,49,47,-100,-100,-100,0,0,100,30.20,30.08,33,21,39,0.00
2013-2-22,51,49,46,-100,-100,-100,0,0,100,30.29,30.19,25,16,31,0.00
2013-2-23,51,49,48,-100,-100,-100,0,0,100,30.29,30.20,38,24,43,0.00
2013-2-24,50,48,44,-100,-100,-100,0,0,100,30.28,30.19,24,16,29,0.00
2013-2-25,51,49,48,-100,-100,-100,0,0,100,30.29,30.21,29,21,34,0.00
2013-2-26,53,49,45,-100,-100,-100,0,0,100,30.24,30.18,27,16,31,0.00
2013-2-27,53,49,47,-100,-100,-100,0,0,100,30.39,30.22,26,16,30,0.00
2013-2-28,52,50,49,-100,-100,-100,0,0,100,30.48,30.38,21,15,28,0.00
2013-3-1,57,49,46,-100,-100,-100,0,0,100,30.46,30.25,19,9,24,0.00
2013-3-2,55,50,47,-100,-100,-100,0,0,100,30.26,30.11,19,-27,25,0.00
2013-3-3,51,50,48,-100,-100,-100,0,0,100,30.13,30.08,21,11,24,0.00
2013-3-4,51,48,46,-100,-100,-100,0,0,100,30.18,30.07,19,9,23,0.00
2013-3-5,52,49,46,-100,-100,-100,0,0,100,30.09,29.78,29,6,47,0.00
2013-3-6,53,51,49,-100,-100,-100,0,0,100,30.08,29.80,22,7,34,0.00
2013-3-7,51,49,47,-100,-100,-100,0,0,100,30.01,29.89,16,-70,20,0.00
2013-3-8,51,49,48,-100,-100,-100,0,0,100,30.07,29.86,37,24,44,0.00
2013-3-9,52,50,48,-100,-100,-100,0,0,100,30.33,30.07,33,22,40,0.00
2013-3-10,51,50,47,-100,-100,-100,0,0,100,30.37,30.28,25,12,30,0.00
2013-3-11,54,48,45,-100,-100,-100,0,0,100,30.29,30.14,22,-77,27,0.00
2013-3-12,50,48,47,-100,-100,-100,0,0,100,30.19,30.12,23,14,28,0.00
2013-3-13,63,48,45,-100,-100,-100,0,0,100,30.18,30.10,23,12,28,0.00
2013-3-14,52,48,46,-100,-100,-100,0,0,100,30.21,30.11,25,15,28,0.00
2013-3-15,53,51,49,-100,-100,-100,0,0,100,30.16,30.07,30,20,33,0.00
2013-3-16,52,51,49,-100,-100,-100,0,0,100,30.16,30.05,33,24,41,0.00
2013-3-17,51,50,49,-100,-100,-100,0,0,100,30.18,30.08,32,24,38,0.00
2013-3-18,51,49,48,-100,-100,-100,0,0,100,30.14,30.06,24,13,28,0.00
2013-3-19,55,50,48,-100,-100,-100,0,0,100,30.15,30.07,17,-65,23,0.00
2013-3-20,55,52,49,-100,-100,-100,0,0,100,30.18,30.07,18,8,23,0.00
2013-3-21,51,49,47,-100,-100,-100,0,0,100,30.18,30.06,31,23,38,0.00
2013-3-22,50,49,46,-100,-100,-100,0,0,100,30.16,30.07,29,21,36,0.00
2013-3-23,52,49,47,-100,-100,-100,0,0,100,30.16,30.09,25,15,28,0.00
2013-3-24,50,49,48,-100,-100,-100,0,0,100,30.11,30.02,27,16,31,0.00
2013-3-25,50,48,47,-100,-100,-100,0,0,100,30.06,29.96,19,13,25,0.00
2013-3-26,53,50,47,-100,-100,-100,0,0,100,30.04,29.98,13,-42,21,0.00
2013-3-27,52,50,49,-100,-100,-100,0,0,100,30.03,29.96,8,-115,11,0.00
2013-3-28,56,52,50,-100,-100,-100,0,0,100,30.11,30.02,10,-17,13,0.00
2013-3-29,61,53,47,-100,-100,-100,0,0,100,30.11,30.05,6,-60,11,0.00
2013-3-30,56,53,51,-100,-100,-100,0,0,100,30.10,30.02,13,6,20,0.00
2013-3-31,56,54,53,-100,-100,-100,0,0,100,30.08,30.02,15,8,19,0.00
2013-4-1,58,54,52,-100,-100,-100,0,0,100,30.18,30.05,12,5,15,0.00
2013-4-2,53,51,49,-100,-100,-100,0,0,100,30.22,30.14,19,11,22,0.00
2013-4-3,55,50,48,-100,-100,-100,0,0,100,30.16,30.03,15,-1,18,0.00
2013-4-4,54,53,50,-100,-100,-100,0,0,100,30.14,29.99,20,9,27,0.00
2013-4-5,58,54,52,-100,-100,-100,0,0,100,30.22,30.13,9,-53,13,0.00
2013-4-6,56,54,52,-100,-100,-100,0,0,100,30.22,30.16,13,-36,17,0.00
2013-4-7,56,54,52,-100,-100,-100,0,0,100,30.20,29.90,40,-5,52,0.00
2013-4-8,52,51,50,-100,-100,-100,0,0,100,30.08,29.89,48,34,62,0.00
2013-4-9,53,51,49,-100,-100,-100,0,0,100,30.15,30.07,28,21,34,0.00
2013-4-10,55,52,51,-100,-100,-100,0,0,100,30.21,30.11,34,21,41,0.00
2013-4-11,53,50,49,-100,-100,-100,0,0,100,30.14,29.89,35,28,42,0.00
2013-4-12,50,49,48,-100,-100,-100,0,0,100,29.96,29.88,33,23,41,0.00
2013-4-13,51,49,48,-100,-100,-100,0,0,100,29.95,29.87,45,33,56,0.00
2013-4-14,50,48,47,-100,-100,-100,0,0,100,29.98,29.91,37,26,45,0.00
2013-4-15,49,48,46,-100,-100,-100,0,0,100,30.01,29.90,40,28,51,0.00
2013-4-16,51,48,46,-100,-100,-100,0,0,100,30.20,30.01,31,22,37,0.00
2013-4-17,52,49,47,-100,-100,-100,0,0,100,30.31,30.19,23,17,28,0.00
2013-4-18,51,49,47,-100,-100,-100,0,0,100,30.30,30.22,25,18,32,0.00
2013-4-19,55,50,47,-100,-100,-100,0,0,100,30.27,30.12,31,16,37,0.00
2013-4-20,51,49,47,-100,-100,-100,0,0,100,30.14,30.03,30,23,36,0.00
2013-4-21,55,51,47,-100,-100,-100,0,0,100,30.08,29.96,25,17,32,0.00
2013-4-22,66,56,50,-100,-100,-100,0,0,100,29.99,29.89,13,-115,15,0.00
2013-4-23,52,48,45,-100,-100,-100,0,0,100,30.01,29.89,15,4,17,0.00
2013-4-24,53,49,47,-100,-100,-100,0,0,100,29.98,29.86,9,-45,13,0.00
2013-4-25,56,53,52,-100,-100,-100,0,0,100,30.16,29.97,11,-73,14,0.00
2013-4-26,52,51,49,-100,-100,-100,0,0,100,30.27,30.15,17,10,21,0.00
2013-4-27,50,49,47,-100,-100,-100,0,0,100,30.26,30.11,19,13,25,0.00
2013-4-28,55,52,49,-100,-100,-100,0,0,100,30.11,29.90,28,17,34,0.00
2013-4-29,57,53,50,-100,-100,-100,0,0,100,29.94,29.83,38,24,47,0.00
2013-4-30,54,51,49,-100,-100,-100,0,0,100,29.91,29.83,32,24,37,0.00
2013-5-1,67,53,48,-100,-100,-100,0,0,100,30.11,29.88,20,-49,25,0.00
2013-5-2,76,62,48,-100,-100,-100,0,0,100,30.16,30.10,19,-141,22,0.00
2013-5-3,61,55,49,-100,-100,-100,0,0,100,30.10,29.83,16,-42,21,0.00
2013-5-4,56,54,51,-100,-100,-100,0,0,100,29.84,29.62,22,-48,29,0.00
2013-5-5,56,55,53,-100,-100,-100,0,0,100,29.82,29.62,26,19,39,0.00
2013-5-6,61,58,55,-100,-100,-100,0,0,100,29.99,29.81,20,-7,33,0.00
2013-5-7,59,56,53,-100,-100,-100,0,0,100,30.08,29.98,12,-128,14,0.00
2013-5-8,54,53,52,-100,-100,-100,0,0,100,30.17,30.08,17,9,24,0.00
2013-5-9,54,53,52,-100,-100,-100,0,0,100,30.22,30.14,20,14,24,0.00
2013-5-10,53,51,50,-100,-100,-100,0,0,100,30.23,30.15,22,16,28,0.00
2013-5-11,55,51,49,-100,-100,-100,0,0,100,30.19,30.11,19,9,22,0.00
2013-5-12,56,53,51,-100,-100,-100,0,0,100,30.20,30.07,23,12,29,0.00
2013-5-13,57,54,52,-100,-100,-100,0,0,100,30.12,29.98,31,23,37,0.00
2013-5-14,55,54,52,-100,-100,-100,0,0,100,30.02,29.94,39,29,46,0.00
2013-5-15,56,53,51,-100,-100,-100,0,0,100,30.09,30.01,35,29,43,0.00
2013-5-16,56,50,52,-100,-100,-100,0,0,100,30.06,30.01,24,17,31,0.00
2013-5-17,56,53,51,-100,-100,-100,0,0,100,30.11,30.00,24,17,30,0.00
2013-5-18,56,53,51,-100,-100,-100,0,0,100,30.17,30.09,33,23,40,0.00
2013-5-19,55,53,51,-100,-100,-100,0,0,100,30.16,30.02,30,24,38,0.00
2013-5-20,55,52,51,-100,-100,-100,0,0,100,30.05,29.96,30,22,36,0.00
2013-5-21,54,52,49,-100,-100,-100,0,0,100,30.06,29.95,43,32,52,0.00
2013-5-22,52,50,48,-100,-100,-100,0,0,100,30.07,29.96,39,28,47,0.00
2013-5-23,53,50,49,-100,-100,-100,0,0,100,30.06,29.96,29,25,38,0.00
2013-5-24,53,51,49,-100,-100,-100,0,0,100,30.04,29.98,33,24,39,0.00
2013-5-25,53,51,49,-100,-100,-100,0,0,100,30.08,29.98,31,25,41,0.00
2013-5-26,58,54,51,-100,-100,-100,0,0,100,30.17,30.08,22,14,26,0.00
2013-5-27,57,54,53,-100,-100,-100,0,0,100,30.16,30.01,21,8,25,0.00
2013-5-28,55,54,51,-100,-100,-100,0,0,100,30.04,29.96,25,-136,28,0.00
2013-5-29,57,54,52,-100,-100,-100,0,0,100,30.01,29.95,31,-25,40,0.00
2013-5-30,55,53,51,-100,-100,-100,0,0,100,30.04,29.96,35,27,43,0.00
2013-5-31,54,53,50,-100,-100,-100,0,0,100,30.06,29.96,35,26,40,0.00
2013-6-1,58,53,51,-100,-100,-100,0,0,100,29.97,29.83,33,25,43,0.00
2013-6-2,53,51,49,-100,-100,-100,0,0,100,29.83,29.71,38,22,44,0.00
2013-6-3,54,52,50,-100,-100,-100,0,0,100,29.90,29.74,17,10,22,0.00
2013-6-4,54,53,52,-100,-100,-100,0,0,100,30.01,29.88,11,-44,15,0.00
2013-6-5,55,53,52,-100,-100,-100,0,0,100,30.04,29.98,6,-25,11,0.00
2013-6-6,57,53,51,-100,-100,-100,0,0,100,29.99,29.91,14,-9,19,0.00
2013-6-7,58,54,50,-100,-100,-100,0,0,100,29.93,29.76,13,-10,17,0.00
2013-6-8,56,54,52,-100,-100,-100,0,0,100,29.85,29.75,19,11,26,0.00
2013-6-9,57,55,54,-100,-100,-100,0,0,100,29.93,29.84,15,7,22,0.00
2013-6-10,58,56,55,-100,-100,-100,0,0,100,29.98,29.85,9,-24,15,0.00
2013-6-11,58,55,54,-100,-100,-100,0,0,100,30.02,29.91,29,-10,35,0.00
2013-6-12,55,54,52,-100,-100,-100,0,0,100,30.05,29.93,39,28,49,0.00
2013-6-13,55,53,51,-100,-100,-100,0,0,100,30.15,30.03,36,28,43,0.00
2013-6-14,54,52,51,-100,-100,-100,0,0,100,30.04,29.87,27,21,32,0.00
2013-6-15,53,51,49,-100,-100,-100,0,0,100,30.02,29.85,26,20,33,0.00
2013-6-16,55,52,50,-100,-100,-100,0,0,100,30.12,30.01,30,24,35,0.00
2013-6-17,56,54,51,-100,-100,-100,0,0,100,30.14,30.07,28,20,33,0.00
2013-6-18,57,55,53,-100,-100,-100,0,0,100,30.09,30.03,24,19,31,0.00
2013-6-19,57,55,53,-100,-100,-100,0,0,100,30.10,30.04,28,21,37,0.00
2013-6-20,56,53,52,-100,-100,-100,0,0,100,30.06,29.99,27,22,34,0.00
2013-6-22,58,55,52,-100,-100,-100,0,0,100,29.97,29.90,35,25,43,0.00
2013-6-23,59,54,52,-100,-100,-100,0,0,100,29.91,29.85,26,-64,30,0.00
2013-6-24,55,54,51,-100,-100,-100,0,0,100,29.91,29.82,12,-89,19,0.00
2013-6-25,57,55,54,-100,-100,-100,0,0,100,30.01,29.89,15,9,25,0.00
2013-6-26,65,59,56,-100,-100,-100,0,0,100,30.09,29.98,12,6,13,0.00
2013-6-27,61,57,54,-100,-100,-100,0,0,100,30.13,30.05,27,12,33,0.00
2013-6-28,63,58,54,-100,-100,-100,0,0,100,30.06,29.94,26,16,32,0.00
2013-6-29,64,60,57,-100,-100,-100,0,0,100,29.96,29.83,33,19,39,0.00
2013-6-30,60,57,55,-100,-100,-100,0,0,100,29.89,29.80,31,23,41,0.00
2013-7-1,60,56,52,-100,-100,-100,0,0,100,29.91,29.82,23,14,27,0.00
2013-7-2,58,56,53,-100,-100,-100,0,0,100,29.96,29.86,18,-46,22,0.00
2013-7-3,63,58,56,-100,-100,-100,0,0,100,29.94,29.81,11,-8,15,0.00
2013-7-4,63,59,56,-100,-100,-100,0,0,100,29.83,29.72,36,16,44,0.00
2013-7-5,56,55,53,-100,-100,-100,0,0,100,29.80,29.74,39,23,47,0.00
2013-7-6,54,52,51,-100,-100,-100,0,0,100,29.83,29.76,11,6,17,0.00
2013-7-7,57,54,51,-100,-100,-100,0,0,100,29.89,29.81,12,7,17,0.00
2013-7-8,56,54,53,-100,-100,-100,0,0,100,30.01,29.89,10,5,15,0.00
2013-7-9,54,53,50,-100,-100,-100,0,0,100,30.07,29.98,18,-32,21,0.00
2013-7-10,56,52,52,-100,-100,-100,0,0,100,30.03,29.96,11,-5,14,0.00
2013-7-11,55,53,51,-100,-100,-100,0,0,100,29.98,29.92,14,6,18,0.00
2013-7-12,56,54,53,-100,-100,-100,0,0,100,29.98,29.91,13,5,16,0.00
2013-7-13,56,54,53,-100,-100,-100,0,0,100,30.00,29.91,14,-4,18,0.00
2013-7-14,55,54,51,-100,-100,-100,0,0,100,30.04,29.96,11,6,15,0.00
2013-7-15,57,54,50,-100,-100,-100,0,0,100,29.96,29.88,9,4,12,0.00
2013-7-16,59,56,53,-100,-100,-100,0,0,100,30.06,29.89,10,5,13,0.00
2013-7-17,58,56,54,-100,-100,-100,0,0,100,30.14,30.05,18,12,22,0.00
2013-7-18,56,54,53,-100,-100,-100,0,0,100,30.09,29.99,17,-6,21,0.00
2013-7-19,56,54,53,-100,-100,-100,0,0,100,29.98,29.88,20,13,26,0.00
2013-7-20,54,52,51,-100,-100,-100,0,0,100,29.88,29.80,23,10,28,0.00
2013-7-21,54,52,51,-100,-100,-100,0,0,100,29.91,29.79,15,6,19,0.00
2013-7-22,57,55,52,-100,-100,-100,0,0,100,29.99,29.91,11,6,17,0.00
2013-7-23,61,57,55,-100,-100,-100,0,0,100,30.05,29.97,7,-12,10,0.00
2013-7-24,61,55,53,-100,-100,-100,0,0,100,30.03,29.96,12,5,16,0.00
2013-7-25,57,53,52,-100,-100,-100,0,0,100,30.06,29.96,9,4,14,0.00
2013-7-26,58,54,53,-100,-100,-100,0,0,100,30.13,30.05,7,3,11,0.00
2013-7-27,57,54,53,-100,-100,-100,0,0,100,30.07,29.91,6,3,10,0.00
2013-7-28,55,54,53,-100,-100,-100,0,0,100,29.92,29.85,6,-10,11,0.00
2013-7-29,56,55,53,-100,-100,-100,0,0,100,30.03,29.86,9,5,16,0.00
2013-7-30,56,54,52,-100,-100,-100,0,0,100,30.14,30.04,6,-34,10,0.00
2013-7-31,59,56,53,-100,-100,-100,0,0,100,30.13,30.04,30,15,37,0.00
2013-8-1,58,56,54,-100,-100,-100,0,0,100,30.10,30.00,31,24,40,0.00
2013-8-2,56,54,52,-100,-100,-100,0,0,100,30.01,29.94,28,20,34,0.00
2013-8-3,55,53,50,-100,-100,-100,0,0,100,30.01,29.95,17,8,22,0.00
2013-8-4,57,54,51,-100,-100,-100,0,0,100,30.04,29.99,11,5,17,0.00
2013-8-5,55,54,52,-100,-100,-100,0,0,100,30.06,30.00,12,-109,15,0.00
2013-8-6,59,56,53,-100,-100,-100,0,0,100,30.07,30.00,6,-112,10,0.00
2013-8-7,60,58,56,-100,-100,-100,0,0,100,30.13,30.06,8,-36,12,0.00
2013-8-8,58,57,54,-100,-100,-100,0,0,100,30.06,29.99,15,-101,21,0.00
2013-8-9,60,56,53,-100,-100,-100,0,0,100,30.02,29.95,16,9,17,0.00
2013-8-10,60,58,55,-100,-100,-100,0,0,100,30.09,30.01,12,8,17,0.00
2013-8-11,57,55,53,-100,-100,-100,0,0,100,30.06,29.99,15,11,20,0.00
2013-8-31,60,52,56,-100,-100,-100,0,0,100,30.01,29.94,19,13,22,0.00
2013-9-1,59,57,55,-100,-100,-100,0,0,100,29.98,29.94,13,8,20,0.00
2013-9-2,68,63,60,-100,-100,-100,0,0,100,29.98,29.93,14,7,17,0.00
2013-9-3,65,62,58,-100,-100,-100,0,0,100,30.02,29.96,19,16,24,0.00
2013-9-4,65,62,60,-100,-100,-100,0,0,100,30.05,29.98,26,19,31,0.00
2013-9-5,64,62,59,-100,-100,-100,0,0,100,30.05,29.98,24,22,34,0.00
2013-9-6,65,61,57,-100,-100,-100,0,0,100,30.00,29.86,28,12,34,0.00
2013-11-7,60,56,53,-100,-100,-100,0,0,100,30.18,30.10,21,-214,26,0.00
2013-11-8,57,54,52,-100,-100,-100,0,0,100,30.10,30.00,25,13,29,0.00
2013-11-9,56,47,49,-100,-100,-100,0,0,100,30.06,29.99,12,-105,17,0.00
2013-11-10,56,55,53,-100,-100,-100,0,0,100,30.13,30.04,10,7,15,0.00
2013-11-11,55,54,53,-100,-100,-100,0,0,100,30.13,30.09,8,5,13,0.00
2013-11-12,58,56,55,-100,-100,-100,0,0,100,30.27,30.23,6,4,9,0.00
2013-11-13,54,53,52,-100,-100,-100,0,0,100,30.25,30.15,22,18,26,0.00